createdAt,value
2022-08-18T00:00:37.969Z,12.80
2022-08-18T00:02:43.546Z,14.50
2022-08-18T00:05:00.332Z,12.40
2022-08-18T00:07:02.191Z,14.50
2022-08-18T00:09:07.747Z,15.50
2022-08-18T00:11:10.674Z,19.30
2022-08-18T00:13:12.492Z,13.60
2022-08-18T00:15:15.893Z,15.20
2022-08-18T00:17:18.189Z,16.10
2022-08-18T00:19:43.424Z,11.70
2022-08-18T00:21:44.517Z,15.30
2022-08-18T00:23:46.210Z,13.40
2022-08-18T00:25:50.398Z,13.10
2022-08-18T00:27:52.128Z,15.20
2022-08-18T00:29:55.788Z,12.70
2022-08-18T00:31:57.701Z,15.00
2022-08-18T00:34:00.363Z,14.20
2022-08-18T00:36:02.020Z,11.50
2022-08-18T00:38:06.313Z,14.90
2022-08-18T00:40:11.962Z,9.80
2022-08-18T00:42:29.920Z,11.70
2022-08-18T00:44:32.715Z,15.20
2022-08-18T00:46:36.632Z,19.50
2022-08-18T00:48:39.353Z,11.40
2022-08-18T00:50:54.651Z,12.70
2022-08-18T00:53:01.993Z,18.00
2022-08-18T00:55:04.230Z,13.80
2022-08-18T00:57:09.623Z,13.20
2022-08-18T00:59:37.792Z,12.50
2022-08-18T01:01:41.305Z,13.00
2022-08-18T01:03:44.401Z,14.50
2022-08-18T01:05:59.140Z,13.90
2022-08-18T01:08:01.110Z,15.90
2022-08-18T01:12:12.476Z,15.20
2022-08-18T01:14:30.323Z,12.10
2022-08-18T01:16:55.354Z,13.80
2022-08-18T01:19:18.471Z,14.10
2022-08-18T01:21:44.858Z,13.00
2022-08-18T01:23:47.876Z,14.00
2022-08-18T01:26:04.388Z,16.00
2022-08-18T01:28:06.813Z,13.60
2022-08-18T01:30:11.794Z,16.50
2022-08-18T01:32:20.228Z,15.60
2022-08-18T01:34:24.758Z,14.90
2022-08-18T01:36:26.948Z,17.30
2022-08-18T01:41:23.248Z,12.60
2022-08-18T01:42:56.536Z,20.60
2022-08-18T01:44:58.250Z,16.80
2022-08-18T01:46:59.944Z,11.90
2022-08-18T01:49:03.692Z,14.60
2022-08-18T01:51:11.115Z,20.80
2022-08-18T01:53:12.842Z,16.90
2022-08-18T01:55:14.892Z,14.90
2022-08-18T01:59:18.700Z,18.10
2022-08-18T02:01:22.728Z,14.60
2022-08-18T02:03:40.008Z,19.10
2022-08-18T02:05:47.548Z,18.00
2022-08-18T02:07:49.310Z,23.40
2022-08-18T02:09:59.253Z,18.70
2022-08-18T02:12:01.216Z,17.80
2022-08-18T02:14:06.793Z,15.00
2022-08-18T02:16:16.847Z,12.80
2022-08-18T02:18:41.502Z,18.50
2022-08-18T02:20:49.959Z,18.00
2022-08-18T02:22:51.826Z,14.00
2022-08-18T02:24:57.329Z,21.20
2022-08-18T02:26:59.460Z,16.60
2022-08-18T02:29:03.500Z,20.40
2022-08-18T02:31:11.377Z,16.20
2022-08-18T02:33:16.540Z,19.10
2022-08-18T02:35:18.463Z,14.20
2022-08-18T02:37:21.384Z,19.10
2022-08-18T02:39:23.165Z,18.00
2022-08-18T02:41:26.252Z,16.10
2022-08-18T02:43:34.989Z,16.30
2022-08-18T02:45:39.716Z,16.30
2022-08-18T02:47:42.967Z,15.20
2022-08-18T02:49:49.404Z,10.80
2022-08-18T02:51:52.453Z,14.80
2022-08-18T02:53:54.764Z,12.20
2022-08-18T02:56:32.903Z,12.00
2022-08-18T02:58:43.573Z,11.20
2022-08-18T03:00:45.268Z,12.40
2022-08-18T03:02:51.684Z,14.00
2022-08-18T03:05:23.851Z,17.20
2022-08-18T03:07:25.635Z,20.90
2022-08-18T03:09:28.590Z,14.70
2022-08-18T03:11:30.354Z,15.20
2022-08-18T03:13:32.051Z,18.90
2022-08-18T03:15:40.167Z,21.50
2022-08-18T03:17:44.449Z,19.30
2022-08-18T03:19:46.776Z,21.70
2022-08-18T03:21:49.502Z,16.30
2022-08-18T03:24:01.515Z,14.80
2022-08-18T03:26:04.445Z,17.40
2022-08-18T03:28:07.131Z,14.80
2022-08-18T03:30:11.326Z,16.00
2022-08-18T03:32:13.459Z,16.60
2022-08-18T03:34:23.149Z,18.60
2022-08-18T03:36:27.981Z,15.30
2022-08-18T03:38:29.834Z,28.20
2022-08-18T03:40:31.502Z,12.00
2022-08-18T03:42:36.343Z,19.40
2022-08-18T03:44:38.156Z,16.30
2022-08-18T03:46:44.210Z,17.80
2022-08-18T03:48:47.443Z,19.80
2022-08-18T03:50:49.368Z,21.40
2022-08-18T03:52:52.664Z,18.30
2022-08-18T03:54:54.794Z,19.10
2022-08-18T03:56:56.606Z,19.50
2022-08-18T03:59:03.053Z,18.60
2022-08-18T04:01:05.054Z,19.60
2022-08-18T04:05:11.148Z,16.30
2022-08-18T04:07:17.430Z,22.00
2022-08-18T04:09:19.821Z,21.50
2022-08-18T04:11:24.975Z,15.30
2022-08-18T04:13:26.697Z,20.30
2022-08-18T04:15:28.491Z,21.90
2022-08-18T04:17:30.142Z,15.90
2022-08-18T04:19:34.532Z,15.90
2022-08-18T04:21:42.342Z,16.90
2022-08-18T04:23:44.461Z,15.70
2022-08-18T04:25:46.212Z,16.20
2022-08-18T04:27:47.900Z,16.30
2022-08-18T04:29:49.951Z,16.00
2022-08-18T04:31:52.043Z,15.90
2022-08-18T04:33:56.941Z,14.90
2022-08-18T04:35:58.881Z,18.80
2022-08-18T04:38:00.588Z,18.70
2022-08-18T04:40:02.603Z,18.30
2022-08-18T04:42:06.100Z,15.30
2022-08-18T04:44:09.592Z,17.30
2022-08-18T04:46:11.670Z,21.20
2022-08-18T04:50:15.269Z,18.60
2022-08-18T04:52:40.028Z,19.40
2022-08-18T04:54:45.563Z,19.70
2022-08-18T04:56:48.529Z,15.00
2022-08-18T04:59:15.515Z,15.50
2022-08-18T05:01:21.991Z,14.50
2022-08-18T05:03:26.878Z,14.70
2022-08-18T05:05:28.629Z,17.00
2022-08-18T05:07:30.994Z,17.00
2022-08-18T05:09:33.300Z,21.10
2022-08-18T05:11:44.485Z,14.60
2022-08-18T05:13:49.661Z,17.40
2022-08-18T05:16:10.776Z,20.90
2022-08-18T05:18:14.561Z,15.90
2022-08-18T05:20:18.852Z,15.10
2022-08-18T05:22:26.272Z,16.80
2022-08-18T05:24:37.049Z,19.70
2022-08-18T05:26:41.546Z,18.90
2022-08-18T05:28:44.373Z,16.50
2022-08-18T05:30:46.097Z,20.80
2022-08-18T05:32:49.967Z,19.70
2022-08-18T05:34:52.224Z,17.90
2022-08-18T05:37:37.344Z,20.70
2022-08-18T05:40:04.357Z,20.20
2022-08-18T05:42:13.999Z,17.40
2022-08-18T05:44:19.635Z,15.40
2022-08-18T05:46:34.676Z,20.40
2022-08-18T05:48:43.705Z,19.10
2022-08-18T05:50:48.932Z,17.10
2022-08-18T05:53:20.627Z,16.50
2022-08-18T05:55:52.905Z,20.40
2022-08-18T05:58:22.598Z,18.70
2022-08-18T06:00:24.692Z,13.80
2022-08-18T06:05:01.980Z,19.00
2022-08-18T06:07:05.733Z,21.70
2022-08-18T06:09:22.491Z,19.80
2022-08-18T06:11:24.331Z,22.10
2022-08-18T06:13:30.270Z,20.00
2022-08-18T06:16:00.245Z,17.50
2022-08-18T06:18:43.365Z,17.50
2022-08-18T06:21:03.197Z,18.30
2022-08-18T06:23:31.301Z,15.10
2022-08-18T06:25:50.852Z,18.70
2022-08-18T06:28:04.033Z,21.60
2022-08-18T06:30:21.726Z,21.90
2022-08-18T06:32:54.728Z,28.70
2022-08-18T06:35:22.647Z,21.30
2022-08-18T06:38:08.358Z,16.60
2022-08-18T06:40:11.289Z,19.50
2022-08-18T06:42:13.065Z,22.80
2022-08-18T06:46:50.133Z,20.80
2022-08-18T06:48:59.755Z,23.90
2022-08-18T06:51:03.750Z,18.30
2022-08-18T06:53:07.091Z,18.40
2022-08-18T06:55:47.415Z,17.40
2022-08-18T06:58:00.984Z,23.40
2022-08-18T07:00:17.358Z,20.90
2022-08-18T07:02:22.241Z,17.60
2022-08-18T07:04:49.137Z,24.00
2022-08-18T07:06:51.131Z,17.80
2022-08-18T07:08:55.716Z,21.40
2022-08-18T07:11:11.005Z,21.80
2022-08-18T07:13:12.789Z,16.90
2022-08-18T07:15:24.342Z,23.60
2022-08-18T07:17:43.429Z,25.70
2022-08-18T07:19:58.601Z,15.70
2022-08-18T07:22:11.817Z,17.90
2022-08-18T07:24:25.138Z,18.30
2022-08-18T07:26:27.107Z,17.40
2022-08-18T07:28:48.552Z,16.40
2022-08-18T07:31:13.556Z,19.00
2022-08-18T07:33:21.302Z,20.10
2022-08-18T07:35:28.491Z,17.80
2022-08-18T07:37:42.090Z,18.10
2022-08-18T07:39:47.377Z,19.70
2022-08-18T07:42:34.927Z,23.80
2022-08-18T07:45:00.992Z,15.10
2022-08-18T07:47:14.427Z,20.60
2022-08-18T07:49:27.950Z,18.00
2022-08-18T07:51:57.925Z,15.90
2022-08-18T07:54:05.543Z,15.30
2022-08-18T07:56:32.941Z,16.50
2022-08-18T07:59:05.735Z,20.40
2022-08-18T08:01:33.729Z,19.00
2022-08-18T08:03:51.235Z,19.80
2022-08-18T08:06:10.248Z,18.60
2022-08-18T08:08:25.811Z,24.50
2022-08-18T08:10:55.283Z,19.00
2022-08-18T08:13:09.881Z,19.80
2022-08-18T08:15:33.509Z,18.00
2022-08-18T08:17:55.050Z,17.80
2022-08-18T08:20:02.453Z,18.20
2022-08-18T08:22:21.542Z,30.20
2022-08-18T08:24:51.124Z,18.70
2022-08-18T08:27:45.128Z,19.70
2022-08-18T08:30:04.708Z,18.50
2022-08-18T08:32:23.938Z,17.60
2022-08-18T08:34:48.473Z,17.80
2022-08-18T08:37:02.418Z,21.40
2022-08-18T08:39:13.249Z,20.60
2022-08-18T08:41:22.720Z,16.20
2022-08-18T08:43:33.003Z,18.40
2022-08-18T08:46:11.642Z,22.00
2022-08-18T08:48:19.263Z,22.20
2022-08-18T08:50:25.092Z,18.30
2022-08-18T08:52:35.572Z,20.90
2022-08-18T08:54:44.233Z,16.90
2022-08-18T08:56:49.224Z,21.80
2022-08-18T08:58:57.515Z,21.40
2022-08-18T09:00:59.808Z,19.80
2022-08-18T09:03:10.529Z,21.80
2022-08-18T09:05:20.351Z,21.10
2022-08-18T09:07:50.753Z,22.20
2022-08-18T09:10:27.072Z,23.90
2022-08-18T09:12:46.472Z,19.50
2022-08-18T09:15:10.383Z,16.70
2022-08-18T09:21:12.275Z,15.00
2022-08-18T09:24:02.232Z,19.30
2022-08-18T09:26:24.597Z,17.40
2022-08-18T09:28:32.204Z,20.30
2022-08-18T09:31:08.932Z,14.40
2022-08-18T09:33:45.606Z,17.00
2022-08-18T09:38:38.877Z,14.70
2022-08-18T09:41:11.485Z,14.20
2022-08-18T09:43:36.711Z,13.50
2022-08-18T09:45:57.593Z,15.60
2022-08-18T09:48:02.897Z,12.90
2022-08-18T09:50:04.710Z,13.20
2022-08-18T09:55:04.981Z,13.50
2022-08-18T09:59:59.737Z,11.60
2022-08-18T10:02:14.148Z,7.10
2022-08-18T10:04:29.542Z,8.40
2022-08-18T10:06:31.322Z,9.40
2022-08-18T10:11:22.358Z,10.50
2022-08-18T10:13:49.606Z,11.90
2022-08-18T10:16:23.432Z,10.60
2022-08-18T10:18:29.631Z,10.70
2022-08-18T10:20:41.308Z,10.20
2022-08-18T10:22:47.970Z,9.00
2022-08-18T10:25:09.137Z,10.00
2022-08-18T10:27:49.167Z,9.50
2022-08-18T10:29:53.013Z,10.10
2022-08-18T10:31:58.769Z,8.70
2022-08-18T10:34:17.026Z,10.80
2022-08-18T10:36:40.132Z,7.00
2022-08-18T10:38:49.404Z,11.30
2022-08-18T10:41:02.000Z,5.80
2022-08-18T10:43:45.335Z,9.60
2022-08-18T10:46:20.706Z,8.70
2022-08-18T10:48:24.447Z,4.40
2022-08-18T10:50:29.610Z,6.50
2022-08-18T10:53:23.962Z,6.30
2022-08-18T10:55:48.068Z,7.00
2022-08-18T10:58:16.970Z,10.60
2022-08-18T11:00:21.214Z,7.80
2022-08-18T11:02:44.132Z,7.00
2022-08-18T11:04:59.359Z,9.70
2022-08-18T11:07:03.770Z,6.00
2022-08-18T11:09:11.146Z,5.70
2022-08-18T11:11:37.050Z,6.20
2022-08-18T11:19:41.975Z,6.40
2022-08-18T11:21:51.470Z,6.80
2022-08-18T11:24:21.128Z,5.20
2022-08-18T11:32:52.177Z,4.70
2022-08-18T11:34:59.824Z,6.80
2022-08-18T11:39:37.689Z,5.50
2022-08-18T11:41:48.507Z,9.80
2022-08-18T11:43:57.019Z,5.90
2022-08-18T11:46:02.820Z,4.20
2022-08-18T11:48:32.172Z,5.90
2022-08-18T11:51:25.543Z,6.20
2022-08-18T11:53:38.499Z,3.00
2022-08-18T11:58:12.584Z,4.00
2022-08-18T12:03:31.912Z,2.90
2022-08-18T12:05:55.857Z,3.30
2022-08-18T12:07:58.324Z,6.30
2022-08-18T12:10:19.773Z,4.70
2022-08-18T12:12:28.435Z,3.60
2022-08-18T12:14:35.199Z,3.20
2022-08-18T12:16:39.751Z,3.60
2022-08-18T12:18:41.750Z,5.10
2022-08-18T12:20:43.532Z,4.10
2022-08-18T12:22:46.940Z,5.00
2022-08-18T12:24:49.489Z,3.40
2022-08-18T12:27:21.234Z,2.80
2022-08-18T12:29:26.777Z,2.40
2022-08-18T12:31:47.439Z,5.80
2022-08-18T12:34:00.720Z,2.30
2022-08-18T12:36:05.172Z,2.10
2022-08-18T12:38:56.671Z,2.50
2022-08-18T12:40:59.025Z,2.50
2022-08-18T12:43:00.734Z,3.60
2022-08-18T12:45:03.638Z,2.40
2022-08-18T12:47:17.085Z,2.50
2022-08-18T12:49:24.845Z,1.90
2022-08-18T12:51:30.775Z,2.10
2022-08-18T12:55:54.705Z,2.60
2022-08-18T12:57:56.867Z,5.30
2022-08-18T13:00:00.227Z,2.90
2022-08-18T13:02:02.194Z,2.40
2022-08-18T13:04:13.299Z,2.50
2022-08-18T13:06:16.634Z,3.20
2022-08-18T13:08:30.256Z,5.00
2022-08-18T13:10:43.314Z,2.40
2022-08-18T13:12:48.188Z,2.40
2022-08-18T13:14:51.163Z,2.30
2022-08-18T13:16:55.194Z,2.70
2022-08-18T13:18:57.031Z,2.40
2022-08-18T13:20:59.408Z,3.00
2022-08-18T13:23:01.056Z,2.30
2022-08-18T13:25:05.269Z,4.80
2022-08-18T13:27:18.628Z,2.90
2022-08-18T13:29:26.101Z,2.50
2022-08-18T13:31:28.238Z,3.90
2022-08-18T13:33:56.530Z,2.20
2022-08-18T13:35:56.583Z,4.10
2022-08-18T13:37:58.385Z,3.00
2022-08-18T13:40:02.040Z,3.00
2022-08-18T13:42:26.619Z,9.00
2022-08-18T13:44:29.068Z,3.40
2022-08-18T13:46:31.349Z,2.20
2022-08-18T13:48:33.403Z,3.10
2022-08-18T13:50:36.128Z,6.80
2022-08-18T13:52:47.858Z,3.60
2022-08-18T13:54:53.281Z,4.00
2022-08-18T13:56:56.499Z,2.70
2022-08-18T13:59:05.013Z,2.70
2022-08-18T14:01:42.010Z,7.00
2022-08-18T14:03:46.833Z,2.80
2022-08-18T14:05:51.444Z,2.40
2022-08-18T14:07:54.804Z,2.90
2022-08-18T14:09:59.280Z,2.60
2022-08-18T14:12:40.791Z,2.60
2022-08-18T14:14:45.946Z,2.50
2022-08-18T14:16:48.879Z,5.00
2022-08-18T14:19:11.661Z,2.20
2022-08-18T14:21:32.457Z,2.60
2022-08-18T14:23:54.253Z,3.40
2022-08-18T14:26:15.291Z,2.70
2022-08-18T14:28:24.829Z,4.10
2022-08-18T14:30:27.547Z,2.80
2022-08-18T14:32:32.418Z,5.00
2022-08-18T14:34:38.199Z,3.30
2022-08-18T14:36:51.926Z,3.60
2022-08-18T14:38:54.993Z,2.60
2022-08-18T14:40:57.167Z,2.40
2022-08-18T14:42:59.228Z,4.20
2022-08-18T14:45:03.705Z,5.90
2022-08-18T14:47:24.302Z,3.50
2022-08-18T14:49:28.294Z,3.70
2022-08-18T14:51:33.621Z,2.40
2022-08-18T14:53:36.906Z,3.10
2022-08-18T14:55:39.274Z,3.20
2022-08-18T14:57:41.925Z,2.10
2022-08-18T14:59:47.550Z,4.20
2022-08-18T15:01:49.328Z,4.00
2022-08-18T15:03:54.498Z,3.60
2022-08-18T15:05:57.371Z,3.30
2022-08-18T15:08:00.479Z,2.80
2022-08-18T15:10:14.827Z,2.40
2022-08-18T15:12:18.408Z,2.40
2022-08-18T15:14:20.148Z,2.60
2022-08-18T15:16:31.695Z,2.30
2022-08-18T15:18:36.227Z,7.60
2022-08-18T15:20:58.947Z,3.10
2022-08-18T15:23:24.774Z,5.40
2022-08-18T15:25:42.463Z,3.90
2022-08-18T15:27:44.935Z,2.50
2022-08-18T15:29:49.776Z,2.50
2022-08-18T15:31:55.433Z,5.30
2022-08-18T15:33:59.899Z,3.80
2022-08-18T15:36:04.758Z,5.00
2022-08-18T15:38:15.140Z,7.00
2022-08-18T15:40:31.079Z,2.80
2022-08-18T15:42:38.423Z,4.50
2022-08-18T15:44:41.747Z,2.20
2022-08-18T15:46:53.324Z,7.10
2022-08-18T15:48:56.407Z,5.40
2022-08-18T15:51:11.837Z,4.40
2022-08-18T15:53:17.208Z,3.40
2022-08-18T15:55:20.952Z,2.50
2022-08-18T15:57:38.789Z,3.70
2022-08-18T15:59:41.695Z,2.70
2022-08-18T16:01:48.337Z,6.80
2022-08-18T16:03:55.381Z,4.70
2022-08-18T16:05:57.248Z,3.80
2022-08-18T16:08:01.164Z,2.00
2022-08-18T16:10:05.152Z,2.50
2022-08-18T16:12:09.209Z,3.60
2022-08-18T16:14:10.979Z,3.80
2022-08-18T16:16:29.359Z,5.70
2022-08-18T16:18:38.224Z,3.20
2022-08-18T16:20:40.219Z,3.60
2022-08-18T16:22:42.206Z,3.30
2022-08-18T16:24:44.210Z,5.60
2022-08-18T16:26:45.961Z,3.30
2022-08-18T16:28:52.359Z,4.70
2022-08-18T16:30:54.844Z,4.40
2022-08-18T16:33:02.901Z,6.40
2022-08-18T16:35:05.928Z,6.50
2022-08-18T16:37:11.103Z,6.60
2022-08-18T16:39:12.855Z,9.20
2022-08-18T16:41:16.005Z,3.30
2022-08-18T16:43:17.710Z,5.90
2022-08-18T16:45:19.592Z,3.70
2022-08-18T16:47:21.247Z,3.50
2022-08-18T16:49:22.899Z,3.00
2022-08-18T16:51:26.755Z,4.80
2022-08-18T16:53:40.172Z,5.80
2022-08-18T16:55:43.392Z,6.00
2022-08-18T16:58:03.735Z,4.30
2022-08-18T17:00:25.354Z,4.20
2022-08-18T17:02:45.833Z,7.80
2022-08-18T17:04:47.551Z,6.30
2022-08-18T17:06:50.039Z,8.40
2022-08-18T17:08:54.399Z,3.40
2022-08-18T17:10:56.118Z,5.10
2022-08-18T17:13:00.634Z,3.10
2022-08-18T17:15:09.306Z,2.70
2022-08-18T17:17:17.745Z,4.00
2022-08-18T17:19:20.253Z,6.60
2022-08-18T17:21:29.132Z,5.20
2022-08-18T17:23:32.784Z,4.40
2022-08-18T17:25:35.021Z,2.50
2022-08-18T17:27:38.024Z,3.90
2022-08-18T17:29:48.121Z,3.20
2022-08-18T17:32:23.712Z,4.10
2022-08-18T17:34:51.859Z,5.00
2022-08-18T17:36:58.431Z,3.10
2022-08-18T17:39:04.101Z,3.80
2022-08-18T17:41:07.336Z,4.90
2022-08-18T17:43:18.549Z,3.00
2022-08-18T17:45:21.964Z,3.90
2022-08-18T17:47:27.431Z,7.90
2022-08-18T17:50:27.033Z,2.90
2022-08-18T17:52:33.007Z,4.60
2022-08-18T17:54:42.015Z,3.70
2022-08-18T17:56:48.235Z,7.40
2022-08-18T17:58:56.552Z,1.80
2022-08-18T18:00:58.206Z,5.00
2022-08-18T18:03:00.337Z,4.10
2022-08-18T18:05:06.050Z,8.00
2022-08-18T18:07:21.453Z,3.60
2022-08-18T18:09:24.117Z,3.30
2022-08-18T18:11:31.065Z,3.10
2022-08-18T18:13:33.537Z,3.10
2022-08-18T18:15:43.778Z,5.10
2022-08-18T18:21:23.139Z,3.20
2022-08-18T18:23:49.678Z,3.00
2022-08-18T18:25:51.490Z,2.60
2022-08-18T18:30:07.129Z,9.20
2022-08-18T18:32:30.799Z,5.70
2022-08-18T18:35:09.863Z,4.80
2022-08-18T18:37:47.294Z,3.20
2022-08-18T18:39:57.248Z,4.90
2022-08-18T18:42:17.898Z,6.50
2022-08-18T18:44:28.717Z,4.40
2022-08-18T18:46:35.507Z,3.00
2022-08-18T18:49:00.502Z,3.80
2022-08-18T18:51:12.190Z,3.80
2022-08-18T18:53:20.046Z,3.50
2022-08-18T18:55:35.511Z,2.70
2022-08-18T18:58:19.121Z,3.90
2022-08-18T19:00:27.516Z,2.60
2022-08-18T19:02:41.382Z,5.10
2022-08-18T19:04:51.842Z,2.10
2022-08-18T19:07:01.482Z,7.20
2022-08-18T19:09:18.214Z,3.80
2022-08-18T19:11:29.643Z,6.80
2022-08-18T19:13:40.046Z,3.70
2022-08-18T19:15:42.983Z,4.80
2022-08-18T19:17:51.504Z,4.90
2022-08-18T19:20:10.349Z,3.00
2022-08-18T19:22:24.925Z,3.40
2022-08-18T19:24:29.822Z,3.30
2022-08-18T19:26:38.319Z,2.40
2022-08-18T19:29:13.238Z,4.60
2022-08-18T19:31:31.800Z,3.30
2022-08-18T19:33:47.777Z,4.70
2022-08-18T19:36:10.615Z,4.80
2022-08-18T19:39:10.942Z,3.30
2022-08-18T19:41:28.958Z,4.80
2022-08-18T19:43:41.597Z,6.80
2022-08-18T19:45:47.385Z,5.70
2022-08-18T19:48:03.559Z,3.20
2022-08-18T19:50:40.328Z,5.40
2022-08-18T19:53:15.459Z,5.40
2022-08-18T19:55:54.083Z,5.00
2022-08-18T19:58:32.484Z,6.30
2022-08-18T20:00:51.525Z,6.20
2022-08-18T20:03:17.547Z,5.30
2022-08-18T20:05:51.678Z,3.60
2022-08-18T20:08:33.146Z,4.60
2022-08-18T20:10:49.865Z,5.10
2022-08-18T20:13:32.833Z,4.30
2022-08-18T20:15:34.788Z,7.60
2022-08-18T20:19:57.575Z,5.90
2022-08-18T20:22:05.916Z,11.20
2022-08-18T20:24:18.367Z,7.50
2022-08-18T20:26:36.065Z,9.70
2022-08-18T20:28:42.924Z,6.10
2022-08-18T20:31:06.955Z,10.50
2022-08-18T20:35:33.237Z,8.70
2022-08-18T20:37:35.199Z,9.80
2022-08-18T20:39:48.453Z,5.80
2022-08-18T20:41:50.534Z,9.80
2022-08-18T20:44:15.864Z,11.90
2022-08-18T20:46:52.657Z,10.60
2022-08-18T20:49:17.421Z,11.60
2022-08-18T20:51:24.254Z,10.60
2022-08-18T20:53:49.148Z,13.00
2022-08-18T20:55:58.108Z,12.00
2022-08-18T20:58:08.121Z,11.80
2022-08-18T21:00:26.968Z,9.60
2022-08-18T21:02:43.767Z,13.40
2022-08-18T21:04:51.158Z,7.70
2022-08-18T21:06:52.953Z,12.00
2022-08-18T21:08:55.742Z,12.70
2022-08-18T21:10:58.635Z,10.30
2022-08-18T21:13:03.337Z,10.90
2022-08-18T21:15:12.420Z,11.00
2022-08-18T21:17:15.319Z,14.10
2022-08-18T21:19:25.944Z,15.10
2022-08-18T21:21:32.938Z,13.00
2022-08-18T21:23:37.687Z,14.10
2022-08-18T21:25:57.931Z,13.80
2022-08-18T21:28:00.462Z,12.20
2022-08-18T21:30:06.894Z,14.60
2022-08-18T21:32:17.455Z,9.30
2022-08-18T21:34:33.330Z,16.00
2022-08-18T21:36:36.393Z,13.40
2022-08-18T21:38:38.324Z,9.50
2022-08-18T21:42:45.991Z,10.60
2022-08-18T21:46:53.199Z,10.00
2022-08-18T21:49:02.429Z,6.50
2022-08-18T21:51:04.189Z,8.70
2022-08-18T21:53:11.728Z,9.40
2022-08-18T21:55:20.621Z,10.10
2022-08-18T21:57:27.898Z,10.10
2022-08-18T21:59:29.588Z,9.10
2022-08-18T22:01:33.489Z,7.50
2022-08-18T22:03:42.226Z,7.90
2022-08-18T22:06:09.310Z,8.00
2022-08-18T22:08:22.143Z,7.90
2022-08-18T22:10:51.429Z,5.60
2022-08-18T22:13:13.863Z,9.10
2022-08-18T22:15:18.506Z,8.60
2022-08-18T22:17:42.916Z,8.20
2022-08-18T22:19:44.636Z,4.70
2022-08-18T22:21:50.196Z,8.10
2022-08-18T22:24:10.750Z,8.80
2022-08-18T22:26:25.453Z,7.40
2022-08-18T22:28:27.278Z,7.30
2022-08-18T22:30:29.259Z,7.60
2022-08-18T22:32:35.977Z,6.00
2022-08-18T22:34:37.918Z,9.20
2022-08-18T22:38:43.262Z,3.40
2022-08-18T22:42:49.715Z,4.30
2022-08-18T22:44:52.444Z,4.70
2022-08-18T22:46:54.551Z,5.50
2022-08-18T22:48:59.128Z,4.10
2022-08-18T22:51:00.891Z,3.80
2022-08-18T22:53:02.614Z,6.30
2022-08-18T22:55:10.413Z,4.60
2022-08-18T22:57:12.136Z,7.60
2022-08-18T22:59:17.350Z,3.40
2022-08-18T23:01:24.788Z,7.70
2022-08-18T23:03:27.020Z,5.40
2022-08-18T23:05:31.608Z,5.00
2022-08-18T23:09:36.132Z,7.60
2022-08-18T23:11:37.787Z,5.30
2022-08-18T23:13:40.971Z,4.60
2022-08-18T23:15:47.788Z,5.00
2022-08-18T23:17:52.663Z,5.90
2022-08-18T23:19:54.430Z,3.40
2022-08-18T23:21:59.140Z,4.00
2022-08-18T23:24:00.864Z,5.00
2022-08-18T23:26:02.932Z,4.90
2022-08-18T23:28:10.079Z,6.90
2022-08-18T23:30:12.787Z,5.20
2022-08-18T23:32:14.614Z,5.60
2022-08-18T23:34:18.683Z,6.50
2022-08-18T23:36:20.578Z,5.50
2022-08-18T23:40:34.405Z,3.10
2022-08-18T23:42:36.101Z,5.40
2022-08-18T23:44:41.160Z,6.40
2022-08-18T23:46:44.008Z,3.70
2022-08-18T23:48:50.188Z,6.10
2022-08-18T23:50:51.891Z,5.90
2022-08-18T23:52:57.937Z,4.90
2022-08-18T23:54:59.609Z,6.20
2022-08-18T23:57:01.753Z,3.50
2022-08-18T23:59:05.153Z,4.10
